Lady Nur — 3FFE2 — position and weather

sailwx.info

Track history (hours):
 
Tides and Currents Weather Stations Pressure Air Temp Water Temp Dewpoint Dewpoint Depression Visibility Wind Speed Wind Dir Waves Ship Positions

Lady Nur

Last reported at 2015-May-04 07:33 UTC. Time now 2015-May-04 08:02 UTC.
Position N 43°25' E 004°55'.

Length 82 m; draft 3.5 m.

Type: Cargo ship. MMSI: 373237000.

Date/timePositionNaut miles runAvg speedWind from/ knotsBaromVisibWave heightAir tempDewpointWater temp
2015-May-04 07:33N 43°25' E 004°55'6 6.0
2015-May-04 06:33N 43°20' E 004°60'63 9.0
2015-May-03 23:33N 42°20' E 005°29'9 9.3
2015-May-03 22:33N 42°12' E 005°34'9 9.4
2015-May-03 21:33N 42°03' E 005°38'  
2015-Apr-25 23:21N 36°52' E 002°38'8 9.3
2015-Apr-25 22:33N 36°50' E 002°29'9 9.3
2015-Apr-25 21:34N 36°49' E 002°18'9 9.3
2015-Apr-25 20:33N 36°47' E 002°06'9 9.0
2015-Apr-25 19:33N 36°45' E 001°55'9 9.1
2015-Apr-25 18:31N 36°44' E 001°44'9 8.9
2015-Apr-25 17:33N 36°42' E 001°33'9 9.3
2015-Apr-25 16:33N 36°40' E 001°22'9 9.3
2015-Apr-25 15:33N 36°38' E 001°10'85 9.1
2015-Apr-25 06:15N 36°23' W 000°33'9 9.0
2015-Apr-25 05:17N 36°22' W 000°44'85 8.5
2015-Apr-24 19:21N 36°15' W 002°29'6 7.6
2015-Apr-24 18:33N 36°14' W 002°36'10 7.7
2015-Apr-24 17:16N 36°13' W 002°48'  
Track history (hours):
 
Tides and Currents Weather Stations Pressure Air Temp Water Temp Dewpoint Dewpoint Depression Visibility Wind Speed Wind Dir Waves Ship Positions

Lady Nur

Last reported at 2015-May-04 07:33 UTC. Time now 2015-May-04 08:02 UTC.
Position N 43°25' E 004°55'.

Length 82 m; draft 3.5 m.

Type: Cargo ship. MMSI: 373237000.

Date/timePositionNaut miles runAvg speedWind from/ knotsBaromVisibWave heightAir tempDewpointWater temp
2015-May-04 07:33N 43°25' E 004°55'6 6.0
2015-May-04 06:33N 43°20' E 004°60'63 9.0
2015-May-03 23:33N 42°20' E 005°29'9 9.3
2015-May-03 22:33N 42°12' E 005°34'9 9.4
2015-May-03 21:33N 42°03' E 005°38'  
2015-Apr-25 23:21N 36°52' E 002°38'8 9.3
2015-Apr-25 22:33N 36°50' E 002°29'9 9.3
2015-Apr-25 21:34N 36°49' E 002°18'9 9.3
2015-Apr-25 20:33N 36°47' E 002°06'9 9.0
2015-Apr-25 19:33N 36°45' E 001°55'9 9.1
2015-Apr-25 18:31N 36°44' E 001°44'9 8.9
2015-Apr-25 17:33N 36°42' E 001°33'9 9.3
2015-Apr-25 16:33N 36°40' E 001°22'9 9.3
2015-Apr-25 15:33N 36°38' E 001°10'85 9.1
2015-Apr-25 06:15N 36°23' W 000°33'9 9.0
2015-Apr-25 05:17N 36°22' W 000°44'85 8.5
2015-Apr-24 19:21N 36°15' W 002°29'6 7.6
2015-Apr-24 18:33N 36°14' W 002°36'10 7.7
2015-Apr-24 17:16N 36°13' W 002°48'  

Dump ship's entire track history